createdAt,value
2022-11-27T00:01:42.931Z,98753.00
2022-11-27T00:04:13.961Z,98751.00
2022-11-27T00:06:43.998Z,98755.00
2022-11-27T00:09:17.513Z,98764.00
2022-11-27T00:11:46.818Z,98766.00
2022-11-27T00:14:18.349Z,98766.00
2022-11-27T00:16:47.684Z,98772.00
2022-11-27T00:19:17.183Z,98771.00
2022-11-27T00:21:46.322Z,98781.00
2022-11-27T00:24:15.510Z,98779.00
2022-11-27T00:26:44.645Z,98779.00
2022-11-27T00:29:13.939Z,98786.00
2022-11-27T00:31:43.268Z,98795.00
2022-11-27T00:34:12.918Z,98793.00
2022-11-27T00:36:46.651Z,98808.00
2022-11-27T00:39:17.365Z,98813.00
2022-11-27T00:41:46.947Z,98821.00
2022-11-27T00:44:16.415Z,98833.00
2022-11-27T00:46:45.714Z,98841.00
2022-11-27T00:49:17.203Z,98832.00
2022-11-27T00:51:46.389Z,98845.00
2022-11-27T00:54:15.603Z,98842.00
2022-11-27T00:56:44.771Z,98848.00
2022-11-27T00:59:14.242Z,98858.00
2022-11-27T01:01:45.357Z,98868.00
2022-11-27T01:04:17.680Z,98874.00
2022-11-27T01:06:47.797Z,98874.00
2022-11-27T01:09:18.038Z,98876.00
2022-11-27T01:11:47.254Z,98869.00
2022-11-27T01:14:19.546Z,98874.00
2022-11-27T01:16:48.798Z,98873.00
2022-11-27T01:19:19.271Z,98877.00
2022-11-27T01:21:49.154Z,98886.00
2022-11-27T01:24:19.017Z,98896.00
2022-11-27T01:26:49.213Z,98887.00
2022-11-27T01:29:18.410Z,98888.00
2022-11-27T01:31:47.670Z,98888.00
2022-11-27T01:34:20.041Z,98888.00
2022-11-27T01:36:49.325Z,98887.00
2022-11-27T01:39:21.990Z,98893.00
2022-11-27T01:41:51.981Z,98898.00
2022-11-27T01:44:26.919Z,98895.00
2022-11-27T01:47:13.181Z,98890.00
2022-11-27T01:49:52.220Z,98902.00
2022-11-27T01:52:37.288Z,98898.00
2022-11-27T01:55:26.551Z,98903.00
2022-11-27T01:58:11.489Z,98903.00
2022-11-27T02:00:41.911Z,98899.00
2022-11-27T02:03:11.362Z,98904.00
2022-11-27T02:05:40.711Z,98903.00
2022-11-27T02:08:14.538Z,98915.00
2022-11-27T02:11:07.907Z,98925.00
2022-11-27T02:14:02.124Z,98920.00
2022-11-27T02:16:51.221Z,98929.00
2022-11-27T02:20:05.151Z,98927.00
2022-11-27T02:23:31.108Z,98926.00
2022-11-27T02:26:14.845Z,98928.00
2022-11-27T02:29:10.543Z,98926.00
2022-11-27T02:32:15.023Z,98930.00
2022-11-27T02:35:16.011Z,98930.00
2022-11-27T02:38:08.933Z,98926.00
2022-11-27T02:41:13.264Z,98925.00
2022-11-27T02:43:51.433Z,98922.00
2022-11-27T02:46:22.829Z,98927.00
2022-11-27T02:48:59.704Z,98922.00
2022-11-27T02:51:38.418Z,98925.00
2022-11-27T02:54:15.022Z,98920.00
2022-11-27T02:56:49.167Z,98930.00
2022-11-27T02:59:22.066Z,98923.00
2022-11-27T03:02:02.582Z,98919.00
2022-11-27T03:04:47.824Z,98929.00
2022-11-27T03:07:51.772Z,98916.00
2022-11-27T03:10:35.455Z,98911.00
2022-11-27T03:13:05.898Z,98923.00
2022-11-27T03:16:10.468Z,98911.00
2022-11-27T03:19:11.461Z,98905.00
2022-11-27T03:22:03.089Z,98911.00
2022-11-27T03:24:36.150Z,98906.00
2022-11-27T03:27:07.129Z,98912.00
2022-11-27T03:30:05.147Z,98910.00
2022-11-27T03:32:35.222Z,98915.00
2022-11-27T03:35:06.526Z,98900.00
2022-11-27T03:37:35.857Z,98910.00
2022-11-27T03:40:07.378Z,98903.00
2022-11-27T03:43:05.896Z,98900.00
2022-11-27T03:46:10.029Z,98906.00
2022-11-27T03:48:41.888Z,98892.00
2022-11-27T03:51:26.930Z,98899.00
2022-11-27T03:54:49.420Z,98898.00
2022-11-27T03:57:30.159Z,98897.00
2022-11-27T04:00:05.471Z,98890.00
2022-11-27T04:02:53.123Z,98890.00
2022-11-27T04:05:23.382Z,98877.00
2022-11-27T04:07:53.208Z,98877.00
2022-11-27T04:10:22.763Z,98882.00
2022-11-27T04:12:51.965Z,98872.00
2022-11-27T04:15:21.311Z,98875.00
2022-11-27T04:17:50.544Z,98872.00
2022-11-27T04:20:19.948Z,98866.00
2022-11-27T04:22:49.224Z,98867.00
2022-11-27T04:25:18.765Z,98853.00
2022-11-27T04:27:48.358Z,98860.00
2022-11-27T04:30:18.693Z,98856.00
2022-11-27T04:32:47.942Z,98845.00
2022-11-27T04:35:17.339Z,98842.00
2022-11-27T04:37:46.843Z,98838.00
2022-11-27T04:40:16.478Z,98830.00
2022-11-27T04:42:46.146Z,98822.00
2022-11-27T04:45:15.742Z,98817.00
2022-11-27T04:47:45.202Z,98814.00
2022-11-27T04:50:14.413Z,98808.00
2022-11-27T04:52:43.678Z,98801.00
2022-11-27T04:55:13.073Z,98796.00
2022-11-27T04:57:42.310Z,98785.00
2022-11-27T05:00:12.494Z,98785.00
2022-11-27T05:02:42.183Z,98775.00
2022-11-27T05:05:11.647Z,98771.00
2022-11-27T05:07:41.066Z,98758.00
2022-11-27T05:10:10.947Z,98762.00
2022-11-27T05:12:40.285Z,98758.00
2022-11-27T05:15:10.565Z,98751.00
2022-11-27T05:17:39.786Z,98728.00
2022-11-27T05:20:10.336Z,98733.00
2022-11-27T05:22:39.453Z,98729.00
2022-11-27T05:25:09.141Z,98724.00
2022-11-27T05:27:38.402Z,98716.00
2022-11-27T05:30:09.034Z,98712.00
2022-11-27T05:32:38.655Z,98713.00
2022-11-27T05:35:08.361Z,98715.00
2022-11-27T05:37:37.520Z,98704.00
2022-11-27T05:40:08.055Z,98696.00
2022-11-27T05:42:37.213Z,98684.00
2022-11-27T05:45:06.991Z,98683.00
2022-11-27T05:47:36.173Z,98685.00
2022-11-27T05:50:05.683Z,98674.00
2022-11-27T05:52:34.929Z,98677.00
2022-11-27T05:55:04.129Z,98667.00
2022-11-27T05:57:33.417Z,98660.00
2022-11-27T06:00:02.563Z,98653.00
2022-11-27T06:02:32.642Z,98656.00
2022-11-27T06:05:01.877Z,98656.00
2022-11-27T06:07:33.447Z,98642.00
2022-11-27T06:10:02.696Z,98639.00
2022-11-27T06:12:34.165Z,98631.00
2022-11-27T06:15:03.317Z,98625.00
2022-11-27T06:17:32.560Z,98630.00
2022-11-27T06:20:03.835Z,98629.00
2022-11-27T06:22:33.273Z,98625.00
2022-11-27T06:25:02.891Z,98618.00
2022-11-27T06:27:36.466Z,98618.00
2022-11-27T06:30:07.512Z,98611.00
2022-11-27T06:32:36.799Z,98608.00
2022-11-27T06:35:06.475Z,98604.00
2022-11-27T06:37:35.654Z,98603.00
2022-11-27T06:40:06.176Z,98599.00
2022-11-27T06:42:35.341Z,98588.00
2022-11-27T06:45:04.608Z,98589.00
2022-11-27T06:47:33.703Z,98584.00
2022-11-27T06:50:02.874Z,98584.00
2022-11-27T06:52:35.811Z,98577.00
2022-11-27T06:55:08.400Z,98576.00
2022-11-27T06:57:37.526Z,98574.00
2022-11-27T07:00:08.109Z,98569.00
2022-11-27T07:02:37.332Z,98564.00
2022-11-27T07:05:06.757Z,98565.00
2022-11-27T07:07:38.533Z,98564.00
2022-11-27T07:10:11.978Z,98563.00
2022-11-27T07:12:41.194Z,98559.00
2022-11-27T07:15:11.055Z,98554.00
2022-11-27T07:17:40.476Z,98553.00
2022-11-27T07:20:10.439Z,98559.00
2022-11-27T07:22:39.604Z,98548.00
2022-11-27T07:25:09.396Z,98542.00
2022-11-27T07:27:38.583Z,98534.00
2022-11-27T07:30:08.787Z,98526.00
2022-11-27T07:32:38.053Z,98528.00
2022-11-27T07:35:08.014Z,98521.00
2022-11-27T07:37:37.158Z,98520.00
2022-11-27T07:40:07.572Z,98517.00
2022-11-27T07:42:38.278Z,98514.00
2022-11-27T07:45:11.226Z,98516.00
2022-11-27T07:47:41.239Z,98510.00
2022-11-27T07:50:11.706Z,98507.00
2022-11-27T07:52:42.149Z,98508.00
2022-11-27T07:55:11.939Z,98499.00
2022-11-27T07:57:41.120Z,98507.00
2022-11-27T08:00:11.549Z,98498.00
2022-11-27T08:02:40.852Z,98504.00
2022-11-27T08:05:12.987Z,98506.00
2022-11-27T08:07:42.858Z,98512.00
2022-11-27T08:10:12.365Z,98506.00
2022-11-27T08:12:41.614Z,98505.00
2022-11-27T08:15:12.229Z,98501.00
2022-11-27T08:17:42.234Z,98502.00
2022-11-27T08:20:11.856Z,98507.00
2022-11-27T08:22:41.154Z,98510.00
2022-11-27T08:25:10.972Z,98508.00
2022-11-27T08:27:40.208Z,98519.00
2022-11-27T08:30:10.730Z,98518.00
2022-11-27T08:32:44.639Z,98520.00
2022-11-27T08:35:14.334Z,98520.00
2022-11-27T08:37:43.919Z,98522.00
2022-11-27T08:40:14.909Z,98517.00
2022-11-27T08:42:44.187Z,98523.00
2022-11-27T08:45:13.690Z,98520.00
2022-11-27T08:47:44.413Z,98512.00
2022-11-27T08:50:13.633Z,98512.00
2022-11-27T08:52:42.834Z,98515.00
2022-11-27T08:55:12.227Z,98511.00
2022-11-27T08:57:41.403Z,98518.00
2022-11-27T09:00:11.660Z,98517.00
2022-11-27T09:02:40.970Z,98527.00
2022-11-27T09:05:10.659Z,98535.00
2022-11-27T09:07:41.941Z,98537.00
2022-11-27T09:10:12.201Z,98545.00
2022-11-27T09:12:43.554Z,98545.00
2022-11-27T09:15:19.277Z,98550.00
2022-11-27T09:17:48.493Z,98553.00
2022-11-27T09:20:17.737Z,98550.00
2022-11-27T09:22:47.246Z,98556.00
2022-11-27T09:25:16.551Z,98557.00
2022-11-27T09:27:45.731Z,98552.00
2022-11-27T09:30:15.606Z,98551.00
2022-11-27T09:32:44.886Z,98548.00
2022-11-27T09:35:15.823Z,98547.00
2022-11-27T09:37:45.031Z,98547.00
2022-11-27T09:40:19.042Z,98546.00
2022-11-27T09:43:03.174Z,98548.00
2022-11-27T09:45:34.054Z,98548.00
2022-11-27T09:48:08.791Z,98545.00
2022-11-27T09:50:51.259Z,98552.00
2022-11-27T09:53:36.841Z,98550.00
2022-11-27T09:56:12.755Z,98553.00
2022-11-27T09:58:52.013Z,98555.00
2022-11-27T10:01:38.474Z,98557.00
2022-11-27T10:04:17.693Z,98553.00
2022-11-27T10:07:25.555Z,98551.00
2022-11-27T10:10:03.051Z,98542.00
2022-11-27T10:13:22.628Z,98546.00
2022-11-27T10:16:20.881Z,98548.00
2022-11-27T10:18:53.973Z,98548.00
2022-11-27T10:21:56.753Z,98540.00
2022-11-27T10:25:14.726Z,98538.00
2022-11-27T10:28:07.347Z,98544.00
2022-11-27T10:30:48.928Z,98541.00
2022-11-27T10:33:39.792Z,98537.00
2022-11-27T10:36:29.656Z,98541.00
2022-11-27T10:39:02.697Z,98545.00
2022-11-27T10:42:30.007Z,98537.00
2022-11-27T10:45:45.405Z,98545.00
2022-11-27T10:48:16.281Z,98550.00
2022-11-27T10:50:49.536Z,98553.00
2022-11-27T10:53:32.495Z,98556.00
2022-11-27T10:56:16.068Z,98564.00
2022-11-27T10:59:00.910Z,98561.00
2022-11-27T11:01:44.674Z,98564.00
2022-11-27T11:04:39.368Z,98564.00
2022-11-27T11:07:28.820Z,98572.00
2022-11-27T11:09:58.871Z,98571.00
2022-11-27T11:12:28.255Z,98565.00
2022-11-27T11:15:01.369Z,98581.00
2022-11-27T11:17:41.775Z,98587.00
2022-11-27T11:20:26.988Z,98591.00
2022-11-27T11:22:57.117Z,98594.00
2022-11-27T11:25:26.388Z,98590.00
2022-11-27T11:27:55.740Z,98597.00
2022-11-27T11:30:32.690Z,98597.00
2022-11-27T11:33:06.068Z,98611.00
2022-11-27T11:35:38.664Z,98615.00
2022-11-27T11:38:18.432Z,98612.00
2022-11-27T11:41:08.231Z,98616.00
2022-11-27T11:43:39.236Z,98617.00
2022-11-27T11:46:25.996Z,98624.00
2022-11-27T11:49:01.635Z,98626.00
2022-11-27T11:51:58.852Z,98618.00
2022-11-27T11:55:07.943Z,98622.00
2022-11-27T11:57:48.589Z,98620.00
2022-11-27T12:00:30.158Z,98630.00
2022-11-27T12:03:32.904Z,98635.00
2022-11-27T12:06:33.975Z,98637.00
2022-11-27T12:10:06.228Z,98641.00
2022-11-27T12:13:33.580Z,98648.00
2022-11-27T12:16:17.379Z,98652.00
2022-11-27T12:19:26.952Z,98660.00
2022-11-27T12:22:21.981Z,98666.00
2022-11-27T12:25:20.979Z,98669.00
2022-11-27T12:28:40.263Z,98669.00
2022-11-27T12:31:47.298Z,98668.00
2022-11-27T12:34:35.485Z,98676.00
2022-11-27T12:37:37.002Z,98679.00
2022-11-27T12:40:21.749Z,98679.00
2022-11-27T12:43:09.348Z,98685.00
2022-11-27T12:46:23.443Z,98682.00
2022-11-27T12:49:21.805Z,98692.00
2022-11-27T12:52:07.449Z,98695.00
2022-11-27T12:55:03.732Z,98693.00
2022-11-27T12:57:46.596Z,98703.00
2022-11-27T13:00:27.372Z,98706.00
2022-11-27T13:03:28.042Z,98704.00
2022-11-27T13:06:29.253Z,98712.00
2022-11-27T13:09:20.214Z,98706.00
2022-11-27T13:11:50.295Z,98707.00
2022-11-27T13:14:25.625Z,98703.00
2022-11-27T13:17:06.936Z,98705.00
2022-11-27T13:19:52.289Z,98709.00
2022-11-27T13:22:37.067Z,98713.00
2022-11-27T13:25:06.903Z,98704.00
2022-11-27T13:27:39.792Z,98709.00
2022-11-27T13:30:34.184Z,98715.00
2022-11-27T13:33:07.265Z,98721.00
2022-11-27T13:35:37.469Z,98729.00
2022-11-27T13:38:22.333Z,98717.00
2022-11-27T13:40:56.918Z,98726.00
2022-11-27T13:43:36.121Z,98726.00
2022-11-27T13:46:32.552Z,98718.00
2022-11-27T13:49:07.474Z,98720.00
2022-11-27T13:51:43.557Z,98718.00
2022-11-27T13:54:27.631Z,98721.00
2022-11-27T13:56:58.500Z,98726.00
2022-11-27T13:59:28.109Z,98732.00
2022-11-27T14:02:02.904Z,98728.00
2022-11-27T14:04:34.862Z,98724.00
2022-11-27T14:07:14.648Z,98725.00
2022-11-27T14:09:53.909Z,98718.00
2022-11-27T14:12:34.302Z,98718.00
2022-11-27T14:15:18.787Z,98713.00
2022-11-27T14:17:55.052Z,98712.00
2022-11-27T14:20:36.242Z,98711.00
2022-11-27T14:23:13.816Z,98707.00
2022-11-27T14:25:46.426Z,98712.00
2022-11-27T14:28:28.317Z,98705.00
2022-11-27T14:31:01.718Z,98710.00
2022-11-27T14:33:59.546Z,98711.00
2022-11-27T14:36:31.713Z,98711.00
2022-11-27T14:39:02.930Z,98711.00
2022-11-27T14:41:35.157Z,98717.00
2022-11-27T14:44:18.702Z,98707.00
2022-11-27T14:46:48.052Z,98714.00
2022-11-27T14:49:27.205Z,98708.00
2022-11-27T14:52:02.698Z,98708.00
2022-11-27T14:54:38.801Z,98707.00
2022-11-27T14:57:16.300Z,98710.00
2022-11-27T14:59:47.456Z,98715.00
2022-11-27T15:02:24.614Z,98712.00
2022-11-27T15:05:07.272Z,98719.00
2022-11-27T15:07:46.542Z,98719.00
2022-11-27T15:10:41.444Z,98723.00
2022-11-27T15:13:44.249Z,98727.00
2022-11-27T15:16:25.656Z,98726.00
2022-11-27T15:19:03.595Z,98724.00
2022-11-27T15:21:42.037Z,98717.00
2022-11-27T15:24:35.220Z,98714.00
2022-11-27T15:27:21.730Z,98707.00
2022-11-27T15:29:56.657Z,98705.00
2022-11-27T15:32:29.238Z,98709.00
2022-11-27T15:34:58.401Z,98697.00
2022-11-27T15:37:38.241Z,98700.00
2022-11-27T15:40:34.224Z,98712.00
2022-11-27T15:43:04.188Z,98703.00
2022-11-27T15:45:34.665Z,98702.00
2022-11-27T15:48:04.525Z,98701.00
2022-11-27T15:50:34.103Z,98700.00
2022-11-27T15:53:03.279Z,98713.00
2022-11-27T15:55:34.313Z,98704.00
2022-11-27T15:58:03.499Z,98703.00
2022-11-27T16:00:32.588Z,98701.00
2022-11-27T16:03:05.328Z,98703.00
2022-11-27T16:05:34.490Z,98697.00
2022-11-27T16:08:04.254Z,98689.00
2022-11-27T16:10:33.593Z,98696.00
2022-11-27T16:13:02.760Z,98694.00
2022-11-27T16:15:33.259Z,98690.00
2022-11-27T16:18:02.738Z,98691.00
2022-11-27T16:20:31.957Z,98691.00
2022-11-27T16:23:01.133Z,98695.00
2022-11-27T16:25:30.386Z,98699.00
2022-11-27T16:28:02.756Z,98703.00
2022-11-27T16:30:32.828Z,98699.00
2022-11-27T16:33:04.899Z,98703.00
2022-11-27T16:35:34.123Z,98689.00
2022-11-27T16:38:03.352Z,98689.00
2022-11-27T16:40:35.868Z,98690.00
2022-11-27T16:43:05.438Z,98684.00
2022-11-27T16:45:38.251Z,98688.00
2022-11-27T16:48:10.557Z,98687.00
2022-11-27T16:50:39.794Z,98687.00
2022-11-27T16:53:08.985Z,98694.00
2022-11-27T16:55:38.188Z,98692.00
2022-11-27T16:58:07.381Z,98694.00
2022-11-27T17:00:36.700Z,98695.00
2022-11-27T17:03:05.978Z,98698.00
2022-11-27T17:05:39.502Z,98701.00
2022-11-27T17:08:09.332Z,98696.00
2022-11-27T17:10:38.577Z,98691.00
2022-11-27T17:13:07.836Z,98688.00
2022-11-27T17:15:40.804Z,98691.00
2022-11-27T17:18:10.628Z,98687.00
2022-11-27T17:20:39.786Z,98684.00
2022-11-27T17:23:09.017Z,98689.00
2022-11-27T17:25:38.238Z,98690.00
2022-11-27T17:28:07.384Z,98686.00
2022-11-27T17:30:39.715Z,98687.00
2022-11-27T17:33:08.862Z,98682.00
2022-11-27T17:35:38.008Z,98680.00
2022-11-27T17:38:09.354Z,98681.00
2022-11-27T17:40:38.564Z,98682.00
2022-11-27T17:43:07.733Z,98687.00
2022-11-27T17:45:41.212Z,98687.00
2022-11-27T17:48:10.601Z,98689.00
2022-11-27T17:50:40.915Z,98687.00
2022-11-27T17:53:11.299Z,98685.00
2022-11-27T17:55:40.581Z,98682.00
2022-11-27T17:58:10.731Z,98677.00
2022-11-27T18:00:41.221Z,98673.00
2022-11-27T18:03:11.262Z,98678.00
2022-11-27T18:05:41.591Z,98677.00
2022-11-27T18:08:10.806Z,98677.00
2022-11-27T18:10:40.058Z,98677.00
2022-11-27T18:13:09.200Z,98673.00
2022-11-27T18:15:38.682Z,98673.00
2022-11-27T18:18:08.669Z,98665.00
2022-11-27T18:20:38.083Z,98662.00
2022-11-27T18:23:07.565Z,98666.00
2022-11-27T18:25:37.689Z,98656.00
2022-11-27T18:28:07.605Z,98656.00
2022-11-27T18:30:37.115Z,98652.00
2022-11-27T18:33:08.933Z,98649.00
2022-11-27T18:35:43.474Z,98651.00
2022-11-27T18:38:12.614Z,98652.00
2022-11-27T18:40:42.566Z,98648.00
2022-11-27T18:43:12.333Z,98651.00
2022-11-27T18:45:41.638Z,98648.00
2022-11-27T18:48:10.830Z,98645.00
2022-11-27T18:50:39.905Z,98645.00
2022-11-27T18:53:09.040Z,98643.00
2022-11-27T18:55:38.144Z,98638.00
2022-11-27T18:58:07.259Z,98629.00
2022-11-27T19:00:36.541Z,98638.00
2022-11-27T19:03:06.046Z,98646.00
2022-11-27T19:05:37.928Z,98644.00
2022-11-27T19:08:09.932Z,98651.00
2022-11-27T19:10:39.120Z,98639.00
2022-11-27T19:13:08.211Z,98642.00
2022-11-27T19:15:41.046Z,98635.00
2022-11-27T19:18:10.366Z,98639.00
2022-11-27T19:20:40.675Z,98633.00
2022-11-27T19:23:09.888Z,98632.00
2022-11-27T19:25:40.033Z,98635.00
2022-11-27T19:28:11.465Z,98635.00
2022-11-27T19:30:44.340Z,98633.00
2022-11-27T19:33:13.767Z,98626.00
2022-11-27T19:35:42.853Z,98627.00
2022-11-27T19:38:11.921Z,98628.00
2022-11-27T19:40:42.466Z,98628.00
2022-11-27T19:43:11.602Z,98622.00
2022-11-27T19:45:40.782Z,98628.00
2022-11-27T19:48:09.974Z,98626.00
2022-11-27T19:50:39.198Z,98623.00
2022-11-27T19:53:08.500Z,98627.00
2022-11-27T19:55:37.703Z,98625.00
2022-11-27T19:58:06.814Z,98623.00
2022-11-27T20:00:36.030Z,98624.00
2022-11-27T20:03:06.090Z,98623.00
2022-11-27T20:05:35.207Z,98622.00
2022-11-27T20:08:05.292Z,98615.00
2022-11-27T20:10:37.257Z,98617.00
2022-11-27T20:13:06.393Z,98624.00
2022-11-27T20:15:35.512Z,98629.00
2022-11-27T20:18:05.150Z,98627.00
2022-11-27T20:20:34.378Z,98627.00
2022-11-27T20:23:03.468Z,98626.00
2022-11-27T20:25:32.784Z,98624.00
2022-11-27T20:28:02.058Z,98617.00
2022-11-27T20:30:31.688Z,98616.00
2022-11-27T20:33:07.205Z,98622.00
2022-11-27T20:35:36.756Z,98610.00
2022-11-27T20:38:05.889Z,98618.00
2022-11-27T20:40:35.013Z,98618.00
2022-11-27T20:43:04.113Z,98611.00
2022-11-27T20:45:33.341Z,98623.00
2022-11-27T20:48:02.459Z,98623.00
2022-11-27T20:50:31.587Z,98629.00
2022-11-27T20:53:00.722Z,98621.00
2022-11-27T20:55:29.898Z,98625.00
2022-11-27T20:57:59.049Z,98626.00
2022-11-27T21:00:28.248Z,98629.00
2022-11-27T21:02:57.385Z,98634.00
2022-11-27T21:05:26.557Z,98626.00
2022-11-27T21:07:58.356Z,98626.00
2022-11-27T21:10:29.272Z,98627.00
2022-11-27T21:12:58.533Z,98624.00
2022-11-27T21:15:27.708Z,98628.00
2022-11-27T21:17:56.870Z,98625.00
2022-11-27T21:20:26.194Z,98631.00
2022-11-27T21:22:55.587Z,98631.00
2022-11-27T21:25:25.760Z,98621.00
2022-11-27T21:27:56.887Z,98625.00
2022-11-27T21:30:26.862Z,98627.00
2022-11-27T21:32:56.026Z,98621.00
2022-11-27T21:35:31.310Z,98627.00
2022-11-27T21:38:01.337Z,98622.00
2022-11-27T21:40:30.580Z,98624.00
2022-11-27T21:42:59.766Z,98630.00
2022-11-27T21:45:29.241Z,98629.00
2022-11-27T21:47:58.417Z,98630.00
2022-11-27T21:50:27.587Z,98633.00
2022-11-27T21:52:56.869Z,98626.00
2022-11-27T21:55:26.060Z,98627.00
2022-11-27T21:57:55.188Z,98629.00
2022-11-27T22:00:24.464Z,98634.00
2022-11-27T22:02:53.682Z,98642.00
2022-11-27T22:05:22.907Z,98632.00
2022-11-27T22:07:52.280Z,98644.00
2022-11-27T22:10:21.904Z,98636.00
2022-11-27T22:12:51.126Z,98642.00
2022-11-27T22:15:20.368Z,98637.00
2022-11-27T22:17:49.657Z,98637.00
2022-11-27T22:20:19.122Z,98638.00
2022-11-27T22:22:48.271Z,98649.00
2022-11-27T22:25:18.937Z,98652.00
2022-11-27T22:27:48.063Z,98653.00
2022-11-27T22:30:17.525Z,98656.00
2022-11-27T22:32:46.852Z,98658.00
2022-11-27T22:35:16.076Z,98666.00
2022-11-27T22:37:45.289Z,98668.00
2022-11-27T22:40:15.296Z,98669.00
2022-11-27T22:42:45.321Z,98667.00
2022-11-27T22:45:14.833Z,98667.00
2022-11-27T22:47:44.078Z,98669.00
2022-11-27T22:50:13.248Z,98671.00
2022-11-27T22:52:42.473Z,98678.00
2022-11-27T22:55:12.006Z,98686.00
2022-11-27T22:57:41.571Z,98688.00
2022-11-27T23:00:12.107Z,98689.00
2022-11-27T23:02:41.312Z,98695.00
2022-11-27T23:05:10.763Z,98698.00
2022-11-27T23:07:40.018Z,98702.00
2022-11-27T23:10:15.740Z,98705.00
2022-11-27T23:12:44.936Z,98710.00
2022-11-27T23:15:14.299Z,98713.00
2022-11-27T23:17:43.522Z,98711.00
2022-11-27T23:20:14.371Z,98710.00
2022-11-27T23:22:43.633Z,98715.00
2022-11-27T23:25:12.795Z,98726.00
2022-11-27T23:27:45.915Z,98723.00
2022-11-27T23:30:16.302Z,98730.00
2022-11-27T23:32:45.487Z,98728.00
2022-11-27T23:35:14.809Z,98734.00
2022-11-27T23:37:44.452Z,98735.00
2022-11-27T23:40:14.077Z,98736.00
2022-11-27T23:42:43.804Z,98749.00
2022-11-27T23:45:16.607Z,98755.00
2022-11-27T23:47:45.900Z,98760.00
2022-11-27T23:50:15.238Z,98759.00
2022-11-27T23:52:44.500Z,98761.00
2022-11-27T23:55:14.243Z,98768.00
2022-11-27T23:57:43.541Z,98764.00
